Time;durP1;ratioP1;P1;durP2;ratioP2;P2;SDS_P1;SDS_P2;PMS_P1;PMS_P2;Temp;Humidity;BMP_temperature;BMP_pressure;BME280_temperature;BME280_humidity;BME280_pressure;Samples;Min_cycle;Max_cycle;Signal;HPM_P1;HPM_P2
2022/01/14 00:01:20;;;;;;;25.47;10.83;;;;;;;2.18;70.48;101063.63;126368;1098;104143;-81
2022/01/14 00:03:51;;;;;;;25.00;10.70;;;;;;;2.19;69.99;101070.62;126250;1099;104249;-81
2022/01/14 00:06:23;;;;;;;22.13;9.43;;;;;;;2.20;70.63;101077.61;126275;1099;104252;-81
2022/01/14 00:09:01;;;;;;;22.83;9.97;;;;;;;2.22;70.74;101082.91;126314;1099;104181;-80
2022/01/14 00:11:33;;;;;;;23.60;9.87;;;;;;;2.24;70.55;101079.64;126384;1099;104255;-81
2022/01/14 00:14:19;;;;;;;26.17;10.20;;;;;;;2.27;70.90;101082.47;126340;1099;104293;-81
2022/01/14 00:16:53;;;;;;;21.43;9.00;;;;;;;2.31;72.48;101096.59;126304;1098;104236;-81
2022/01/14 00:19:34;;;;;;;23.43;9.80;;;;;;;2.33;70.87;101077.77;126356;1099;104213;-81
2022/01/14 00:22:10;;;;;;;21.83;9.50;;;;;;;2.34;71.33;101081.28;126326;1099;104201;-81
2022/01/14 00:33:20;;;;;;;22.70;9.60;;;;;;;2.36;71.22;101066.75;126283;1099;104144;-80
2022/01/14 00:35:51;;;;;;;22.57;9.50;;;;;;;2.37;70.47;101063.39;126365;1096;104246;-80
2022/01/14 00:38:23;;;;;;;22.07;9.63;;;;;;;2.39;71.76;101068.69;126301;1099;104181;-80
2022/01/14 00:40:55;;;;;;;22.53;9.30;;;;;;;2.39;71.50;101069.58;126335;1098;104299;-80
2022/01/14 00:43:30;;;;;;;21.20;9.03;;;;;;;2.41;71.63;101055.05;126327;1099;104153;-80
2022/01/14 00:46:01;;;;;;;21.27;9.03;;;;;;;2.44;71.52;101063.06;126322;1099;104255;-80
2022/01/14 00:48:34;;;;;;;23.53;9.10;;;;;;;2.48;71.75;101059.05;126294;1097;104169;-80
2022/01/14 00:51:05;;;;;;;21.40;8.60;;;;;;;2.50;71.64;101057.46;126372;1099;104213;-81
2022/01/14 00:53:38;;;;;;;20.47;8.80;;;;;;;2.52;71.55;101045.52;126339;1099;104321;-81
2022/01/14 00:56:21;;;;;;;19.07;8.20;;;;;;;2.55;71.76;101056.12;126303;1099;104249;-81
2022/01/14 01:01:43;;;;;;;20.53;8.60;;;;;;;2.57;72.37;101040.69;126354;1098;104158;-80
2022/01/14 01:04:20;;;;;;;22.27;9.23;;;;;;;2.59;71.92;101028.77;126358;1099;104185;-80
2022/01/14 01:06:52;;;;;;;21.40;8.50;;;;;;;2.59;72.06;101013.23;126257;1099;104185;-81
2022/01/14 01:09:25;;;;;;;19.77;8.57;;;;;;;2.59;71.69;101008.94;126321;1099;107078;-81
2022/01/14 01:12:08;;;;;;;19.53;8.00;;;;;;;2.59;71.66;100992.50;126353;1099;104172;-80
2022/01/14 01:14:47;;;;;;;19.27;7.97;;;;;;;2.58;70.80;100996.76;126339;1099;104157;-79
2022/01/14 01:17:19;;;;;;;19.23;7.73;;;;;;;2.60;71.01;100994.28;126282;1099;104265;-79
2022/01/14 01:19:53;;;;;;;17.77;7.60;;;;;;;2.58;71.39;100991.58;126332;1099;104309;-79
2022/01/14 01:22:30;;;;;;;18.33;7.87;;;;;;;2.57;70.82;100983.69;126244;1098;104143;-80
2022/01/14 01:25:13;;;;;;;18.73;7.80;;;;;;;2.58;71.41;100985.50;126210;1099;104294;-79
2022/01/14 01:27:47;;;;;;;19.37;7.63;;;;;;;2.61;72.22;100977.96;126165;1099;104184;-80
2022/01/14 01:30:49;;;;;;;20.70;8.35;;;;;;;2.66;71.28;100972.31;126243;1099;104816;-79
2022/01/14 01:33:20;;;;;;;22.50;8.70;;;;;;;2.70;71.82;100963.11;125460;1099;104213;-80
2022/01/14 01:35:52;;;;;;;18.63;7.93;;;;;;;2.76;71.90;100957.45;126213;1099;104182;-80
2022/01/14 01:38:23;;;;;;;21.13;8.63;;;;;;;2.79;71.88;100944.72;125446;1099;104338;-79
2022/01/14 01:40:55;;;;;;;19.33;8.30;;;;;;;2.80;71.58;100962.98;126201;1099;104640;-79
2022/01/14 01:43:27;;;;;;;19.93;8.37;;;;;;;2.82;71.55;100964.02;126254;1099;104233;-81
2022/01/14 01:45:59;;;;;;;21.17;7.97;;;;;;;2.84;71.10;100946.88;126239;1099;104309;-80
2022/01/14 01:48:32;;;;;;;19.60;8.33;;;;;;;2.84;71.38;100933.92;126154;1099;104175;-80
2022/01/14 01:51:08;;;;;;;20.13;9.13;;;;;;;2.84;71.48;100945.98;126239;1099;104222;-80
2022/01/14 01:53:40;;;;;;;20.77;8.43;;;;;;;2.84;71.53;100938.21;125460;1099;104178;-80
2022/01/14 01:56:12;;;;;;;19.67;8.40;;;;;;;2.84;71.41;100931.33;126207;1099;104162;-80
2022/01/14 01:58:45;;;;;;;21.03;8.53;;;;;;;2.83;71.88;100933.80;126223;1099;104334;-81
2022/01/14 02:01:18;;;;;;;20.53;8.27;;;;;;;2.84;71.41;100935.63;126338;1099;104229;-81
2022/01/14 02:03:49;;;;;;;19.93;8.80;;;;;;;2.83;70.91;100919.14;126382;1099;104274;-80
2022/01/14 02:06:23;;;;;;;21.20;9.23;;;;;;;2.85;71.10;100919.26;126261;1099;104245;-80
2022/01/14 02:08:55;;;;;;;20.15;8.53;;;;;;;2.84;71.54;100910.59;126283;1098;104145;-80
2022/01/14 02:11:28;;;;;;;19.40;8.27;;;;;;;2.84;71.51;100902.81;126368;1099;104134;-81
2022/01/14 02:14:13;;;;;;;20.55;8.60;;;;;;;2.84;72.11;100897.63;126331;1099;104220;-80
2022/01/14 02:22:09;;;;;;;20.07;8.17;;;;;;;2.83;71.39;100884.56;125473;1099;105488;-79
2022/01/14 02:22:55;;;;;;;19.00;8.57;;;;;;;2.84;70.80;100888.97;125306;1099;104752;-79
2022/01/14 02:25:34;;;;;;;17.83;7.93;;;;;;;2.87;70.99;100886.59;125352;1099;104211;-79
2022/01/14 02:28:13;;;;;;;19.10;8.33;;;;;;;2.88;71.01;100884.12;125330;1099;104181;-79
2022/01/14 02:30:48;;;;;;;19.10;8.37;;;;;;;2.90;71.08;100878.13;126116;1099;104361;-80
2022/01/14 02:33:24;;;;;;;19.57;8.27;;;;;;;2.90;71.06;100878.13;126174;1099;104152;-79
2022/01/14 02:35:56;;;;;;;21.97;8.77;;;;;;;2.90;71.06;100876.45;126234;1099;104361;-80
2022/01/14 02:38:31;;;;;;;19.90;9.00;;;;;;;2.90;71.34;100875.53;126202;1099;104155;-80
2022/01/14 02:41:02;;;;;;;;;;;;;;;2.92;71.46;100873.97;125257;1099;109862;-80
2022/01/14 02:43:35;;;;;;;19.10;7.97;;;;;;;2.90;70.90;100881.64;125339;1099;104277;-79
2022/01/14 02:46:14;;;;;;;20.80;8.60;;;;;;;2.91;71.09;100874.75;125307;1099;104155;-80
2022/01/14 02:48:51;;;;;;;21.27;8.53;;;;;;;2.91;71.36;100878.23;125297;1099;104175;-80
2022/01/14 02:51:23;;;;;;;20.77;8.73;;;;;;;2.90;71.52;100876.45;126212;1099;118848;-80
2022/01/14 02:53:59;;;;;;;21.97;8.93;;;;;;;2.91;71.30;100872.16;126343;1099;104203;-79
2022/01/14 02:56:37;;;;;;;21.77;9.10;;;;;;;2.91;70.77;100864.38;126357;1099;104248;-79
2022/01/14 02:59:17;;;;;;;21.00;8.97;;;;;;;2.92;71.08;100864.48;126351;1099;104153;-80
2022/01/14 03:01:52;;;;;;;22.47;9.83;;;;;;;2.90;71.54;100868.67;126378;1099;104248;-79
2022/01/14 03:04:27;;;;;;;23.60;9.90;;;;;;;2.88;71.25;100858.20;126343;1099;104319;-80
2022/01/14 03:06:59;;;;;;;23.40;9.77;;;;;;;2.88;71.52;100852.09;126252;1098;104149;-80
2022/01/14 03:09:31;;;;;;;21.97;10.23;;;;;;;2.86;71.11;100832.95;126337;1099;104252;-80
2022/01/14 03:12:05;;;;;;;23.73;9.93;;;;;;;2.85;71.06;100829.46;126245;1099;112373;-80
2022/01/14 03:14:35;;;;;;;;;;;;;;;2.85;71.57;100844.09;126389;1099;104195;-80
2022/01/14 03:17:12;;;;;;;26.27;10.97;;;;;;;2.84;71.83;100842.31;126358;1099;104355;-79
2022/01/14 03:19:45;;;;;;;26.73;10.77;;;;;;;2.80;71.70;100841.16;126306;1099;104140;-80
2022/01/14 03:22:24;;;;;;;24.07;11.00;;;;;;;2.81;71.80;100832.61;126287;1099;104215;-80
2022/01/14 03:27:47;;;;;;;25.77;11.37;;;;;;;2.80;71.06;100812.66;126344;1099;104229;-80
2022/01/14 03:30:19;;;;;;;22.73;9.87;;;;;;;2.79;72.20;100805.70;126271;1098;104300;-80
2022/01/14 03:32:50;;;;;;;25.67;11.13;;;;;;;2.79;71.36;100792.73;126308;1097;104291;-80
2022/01/14 03:35:22;;;;;;;24.83;10.87;;;;;;;2.78;71.71;100793.52;126352;1097;104149;-79
2022/01/14 03:37:55;;;;;;;27.63;11.50;;;;;;;2.78;71.36;100783.15;126313;1099;104181;-79
2022/01/14 03:40:28;;;;;;;31.42;12.15;;;;;;;2.78;71.91;100793.52;126342;1097;104162;-80
2022/01/14 03:43:02;;;;;;;27.90;11.97;;;;;;;2.79;71.17;100781.45;126265;1099;117775;-80
2022/01/14 03:45:35;;;;;;;27.43;12.13;;;;;;;2.78;72.17;100777.97;126264;1099;104213;-80
2022/01/14 03:48:08;;;;;;;27.85;10.98;;;;;;;2.78;72.31;100779.67;126327;1099;104223;-80
2022/01/14 03:50:42;;;;;;;27.80;12.60;;;;;;;2.78;71.97;100766.71;126302;1099;104264;-80
2022/01/14 03:53:14;;;;;;;25.90;11.63;;;;;;;2.77;72.33;100770.97;126328;1099;104173;-80
2022/01/14 03:55:46;;;;;;;28.47;12.90;;;;;;;2.76;72.29;100764.01;126336;1099;104178;-80
2022/01/14 03:58:18;;;;;;;27.83;12.77;;;;;;;2.75;71.97;100766.49;126357;1098;104249;-79
2022/01/14 04:00:49;;;;;;;27.33;12.33;;;;;;;2.74;72.60;100768.16;126292;1099;104146;-79
2022/01/14 04:03:21;;;;;;;30.60;13.40;;;;;;;2.75;72.25;100756.13;126268;1099;104278;-80
2022/01/14 04:05:53;;;;;;;28.97;13.20;;;;;;;2.75;71.91;100753.53;126340;1099;104631;-79
2022/01/14 04:08:24;;;;;;;28.83;13.27;;;;;;;2.73;72.31;100743.06;126336;1099;104144;-80
2022/01/14 04:11:00;;;;;;;32.33;13.30;;;;;;;2.73;72.42;100735.28;126316;1099;104255;-79
2022/01/14 04:13:43;;;;;;;32.20;14.33;;;;;;;2.73;72.05;100743.06;126276;1099;101741;-80
2022/01/14 04:16:15;;;;;;;29.17;13.43;;;;;;;2.74;72.55;100749.13;126301;1099;104153;-79
2022/01/14 04:18:47;;;;;;;31.63;14.80;;;;;;;2.73;72.13;100750.83;126376;1099;104207;-79
2022/01/14 04:21:19;;;;;;;28.67;13.17;;;;;;;2.72;72.51;100737.77;126378;1099;104281;-79
2022/01/14 04:23:51;;;;;;;31.93;14.07;;;;;;;2.71;72.68;100734.25;126248;1099;107498;-79
2022/01/14 04:26:22;;;;;;;28.77;13.30;;;;;;;2.72;72.53;100720.52;126349;1099;104284;-80
2022/01/14 04:28:54;;;;;;;30.27;13.00;;;;;;;2.73;72.76;100724.00;126298;1099;104332;-79
2022/01/14 04:31:25;;;;;;;31.80;14.00;;;;;;;2.72;72.59;100741.25;126331;1099;104192;-79
2022/01/14 04:33:57;;;;;;;33.70;14.27;;;;;;;2.75;72.35;100740.58;126301;1099;104265;-79
2022/01/14 04:36:28;;;;;;;31.97;14.43;;;;;;;2.74;72.65;100734.47;126259;1099;104694;-80
2022/01/14 04:39:01;;;;;;;31.60;13.67;;;;;;;2.74;72.83;100737.06;126386;1099;104245;-79
2022/01/14 04:41:33;;;;;;;32.00;13.70;;;;;;;2.74;72.73;100726.70;126309;1099;104227;-78
2022/01/14 04:44:06;;;;;;;29.85;14.35;;;;;;;2.74;72.05;100729.29;126293;1099;104268;-78
2022/01/14 04:47:12;;;;;;;33.00;15.43;;;;;;;2.75;72.42;100709.48;126356;1099;104322;-78
2022/01/14 04:49:44;;;;;;;33.33;15.13;;;;;;;2.75;72.66;100701.70;126307;1099;104248;-79
2022/01/14 04:52:15;;;;;;;38.53;16.43;;;;;;;2.75;72.17;100709.48;126318;1099;105591;-79
2022/01/14 04:54:47;;;;;;;36.03;15.17;;;;;;;2.75;72.74;100725.92;126252;1097;104153;-79
2022/01/14 04:57:21;;;;;;;34.37;15.03;;;;;;;2.76;72.49;100714.77;126312;1099;104159;-78
2022/01/14 04:59:53;;;;;;;33.93;15.63;;;;;;;2.78;72.83;100720.06;126068;1099;104318;-78
2022/01/14 05:02:25;;;;;;;33.67;15.40;;;;;;;2.79;72.65;100714.06;126040;1099;104988;-79
2022/01/14 05:04:58;;;;;;;33.87;15.20;;;;;;;2.79;72.51;100714.06;126069;1099;104146;-79
2022/01/14 05:07:30;;;;;;;34.53;14.97;;;;;;;2.80;72.85;100714.17;126105;1099;104181;-78
2022/01/14 05:10:18;;;;;;;33.83;15.23;;;;;;;2.81;72.93;100717.69;126184;1099;104144;-79
2022/01/14 05:12:50;;;;;;;34.03;15.80;;;;;;;2.83;72.67;100705.72;126169;1098;104188;-79
2022/01/14 05:15:25;;;;;;;38.53;17.90;;;;;;;2.81;72.04;100682.29;126322;1099;104229;-79
2022/01/14 05:17:56;;;;;;;34.37;15.57;;;;;;;2.81;72.87;100697.84;126243;1099;104201;-79
2022/01/14 05:20:44;;;;;;;34.90;15.93;;;;;;;2.82;72.58;100694.47;126298;1099;104155;-79
2022/01/14 05:23:17;;;;;;;34.87;16.33;;;;;;;2.81;72.48;100696.95;126283;1099;104188;-79
2022/01/14 05:25:52;;;;;;;33.40;16.33;;;;;;;2.81;72.54;100703.02;126326;1099;104309;-79
2022/01/14 05:28:23;;;;;;;36.70;16.17;;;;;;;2.81;72.00;100703.02;126213;1099;104144;-79
2022/01/14 05:30:57;;;;;;;35.97;16.97;;;;;;;2.79;71.78;100691.66;126056;1099;104203;-79
2022/01/14 05:33:32;;;;;;;37.40;17.27;;;;;;;2.80;72.35;100697.73;125867;1099;102765;-80
2022/01/14 05:36:05;;;;;;;37.20;16.80;;;;;;;2.81;72.41;100707.32;125917;1099;104200;-77
2022/01/14 05:38:37;;;;;;;36.83;17.17;;;;;;;2.82;72.94;100710.02;126019;1099;104443;-77
2022/01/14 05:41:08;;;;;;;37.80;16.13;;;;;;;2.84;72.31;100707.53;126069;1097;104204;-77
2022/01/14 05:43:40;;;;;;;34.90;15.93;;;;;;;2.83;72.59;100709.20;126083;1099;104172;-76
2022/01/14 05:46:11;;;;;;;39.25;16.95;;;;;;;2.83;72.69;100714.39;126187;1099;104219;-77
2022/01/14 05:48:45;;;;;;;36.80;17.03;;;;;;;2.84;72.60;100697.16;126263;1098;104145;-77
2022/01/14 05:51:22;;;;;;;36.30;17.57;;;;;;;2.82;72.43;100702.24;126276;1099;104175;-77
2022/01/14 05:53:54;;;;;;;38.67;17.60;;;;;;;2.82;72.65;100699.66;126257;1099;104158;-78
2022/01/14 05:56:25;;;;;;;37.07;17.10;;;;;;;2.80;72.63;100683.07;126257;1099;104682;-78
2022/01/14 05:58:57;;;;;;;41.83;17.37;;;;;;;2.82;72.73;100689.28;126178;1099;104293;-79
2022/01/14 06:01:32;;;;;;;38.10;16.80;;;;;;;2.82;72.32;100694.47;126275;1097;104143;-79
2022/01/14 06:04:05;;;;;;;39.57;18.17;;;;;;;2.83;73.17;100695.36;126227;1097;104304;-80
2022/01/14 06:06:37;;;;;;;39.03;17.93;;;;;;;2.81;72.84;100673.63;126028;1099;104162;-79
2022/01/14 06:09:09;;;;;;;38.57;17.70;;;;;;;2.80;73.00;100683.07;126071;1099;104268;-79
2022/01/14 06:11:41;;;;;;;38.27;17.07;;;;;;;2.80;72.96;100669.23;126064;1099;104156;-79
2022/01/14 06:14:12;;;;;;;42.77;19.13;;;;;;;2.80;72.37;100672.70;125954;1099;105498;-79
2022/01/14 06:16:46;;;;;;;39.03;18.23;;;;;;;2.81;72.89;100665.85;126119;1099;104405;-78
2022/01/14 06:19:20;;;;;;;38.83;17.57;;;;;;;2.80;73.04;100664.93;126247;1099;104150;-78
2022/01/14 06:21:52;;;;;;;42.00;19.12;;;;;;;2.80;72.76;100662.34;126029;1099;104227;-79
2022/01/14 06:24:46;;;;;;;35.50;16.33;;;;;;;2.80;72.56;100649.38;126087;1099;104730;-80
2022/01/14 06:27:21;;;;;;;35.87;16.67;;;;;;;2.80;72.53;100644.20;126198;1099;104264;-80
2022/01/14 06:30:02;;;;;;;38.93;16.77;;;;;;;2.78;73.08;100632.84;126179;1099;104223;-79
2022/01/14 06:32:35;;;;;;;36.60;17.33;;;;;;;2.80;73.21;100631.23;126150;1099;104146;-77
2022/01/14 06:35:08;;;;;;;39.47;18.03;;;;;;;2.79;72.35;100626.87;125937;1099;104201;-80
2022/01/14 06:37:44;;;;;;;39.20;17.70;;;;;;;2.78;72.60;100627.66;126196;1099;104143;-79
2022/01/14 06:40:23;;;;;;;41.23;19.07;;;;;;;2.79;73.18;100629.47;126213;1099;104141;-80
2022/01/14 06:42:55;;;;;;;40.60;18.10;;;;;;;2.79;72.78;100621.69;125903;1099;104405;-81
2022/01/14 06:45:30;;;;;;;36.93;16.80;;;;;;;2.80;72.21;100618.28;125918;1099;104430;-80
2022/01/14 06:48:03;;;;;;;38.47;19.23;;;;;;;2.82;72.52;100614.13;125857;1099;104163;-80
2022/01/14 06:50:38;;;;;;;38.73;17.77;;;;;;;2.82;72.97;100603.76;125879;1099;104143;-79
2022/01/14 06:53:12;;;;;;;37.75;15.88;;;;;;;2.83;72.85;100597.76;126116;1099;104223;-82
2022/01/14 06:55:46;;;;;;;35.73;18.95;;;;;;;2.84;72.75;100591.80;126007;1099;105105;-82
2022/01/14 06:58:20;;;;;;;42.07;19.93;;;;;;;2.85;72.44;100588.42;125710;1099;104333;-82
2022/01/14 07:00:55;;;;;;;39.98;20.32;;;;;;;2.86;72.53;100582.42;125993;1099;104220;-81
2022/01/14 07:03:30;;;;;;;40.73;18.47;;;;;;;2.87;73.03;100578.16;125935;1099;104242;-83
2022/01/14 07:06:03;;;;;;;38.93;18.90;;;;;;;2.85;73.08;100577.13;125622;1099;104248;-81
2022/01/14 07:08:40;;;;;;;43.97;19.60;;;;;;;2.91;72.61;100581.84;125834;1099;104171;-80
2022/01/14 07:11:14;;;;;;;38.23;18.30;;;;;;;2.92;72.62;100573.28;125763;1099;104272;-79
2022/01/14 07:13:46;;;;;;;41.35;18.77;;;;;;;2.94;72.74;100574.27;125679;1099;104245;-78
2022/01/14 07:16:27;;;;;;;42.23;19.30;;;;;;;2.95;72.63;100570.89;125808;1099;104171;-81
2022/01/14 07:19:04;;;;;;;43.73;19.07;;;;;;;2.98;72.67;100571.11;125725;1099;104220;-82
2022/01/14 07:21:44;;;;;;;41.25;19.40;;;;;;;3.00;72.57;100561.72;125727;1099;102604;-81
2022/01/14 07:24:18;;;;;;;43.75;19.65;;;;;;;3.02;72.89;100565.30;125767;1099;104230;-81
2022/01/14 07:26:54;;;;;;;38.60;18.70;;;;;;;3.05;72.95;100539.59;125643;1099;104310;-81
2022/01/14 07:29:29;;;;;;;39.90;19.73;;;;;;;3.09;72.43;100530.34;125625;1098;104131;-81
2022/01/14 07:32:01;;;;;;;38.70;18.13;;;;;;;3.11;72.49;100542.59;125732;1099;104223;-78
2022/01/14 07:34:39;;;;;;;36.27;16.87;;;;;;;3.14;72.34;100534.12;125753;1099;104302;-81
2022/01/14 07:37:22;;;;;;;40.47;18.93;;;;;;;3.19;72.73;100520.64;125823;1099;105711;-81
2022/01/14 07:39:57;;;;;;;36.37;18.60;;;;;;;3.22;72.18;100513.06;125940;1099;104198;-82
2022/01/14 07:42:30;;;;;;;39.83;19.00;;;;;;;3.26;72.71;100508.08;126137;1098;104155;-78
2022/01/14 07:45:04;;;;;;;42.70;18.55;;;;;;;3.29;72.63;100503.09;126080;1099;104207;-80
2022/01/14 07:47:35;;;;;;;;;;;;;;;3.31;71.94;100499.80;126021;1099;105649;-80
2022/01/14 07:50:18;;;;;;;36.60;16.80;;;;;;;3.33;72.23;100502.50;126066;1099;104198;-81
2022/01/14 07:52:55;;;;;;;34.63;16.60;;;;;;;3.36;72.44;100493.20;126172;1099;104220;-81
2022/01/14 07:55:32;;;;;;;38.20;17.20;;;;;;;3.41;72.28;100502.20;126094;1099;104185;-80
2022/01/14 07:58:10;;;;;;;37.40;17.57;;;;;;;3.47;72.07;100499.09;125936;1099;104332;-81
2022/01/14 08:00:45;;;;;;;37.00;16.30;;;;;;;3.52;72.18;100501.98;125966;1097;104182;-79
2022/01/14 08:03:18;;;;;;;39.23;16.70;;;;;;;3.57;72.09;100490.22;125921;1099;104290;-83
2022/01/14 08:05:53;;;;;;;36.10;17.23;;;;;;;3.63;71.81;100484.50;125990;1098;102040;-81
2022/01/14 08:08:30;;;;;;;36.90;16.80;;;;;;;3.69;71.77;100490.08;125856;1099;109939;-81
2022/01/14 08:11:15;;;;;;;37.03;17.07;;;;;;;3.75;70.86;100478.38;126047;1099;102095;-82
2022/01/14 08:13:52;;;;;;;36.80;16.67;;;;;;;3.81;70.85;100480.46;126085;1099;104185;-83
2022/01/14 08:16:27;;;;;;;35.70;15.90;;;;;;;3.82;70.18;100476.16;125952;1099;104159;-83
2022/01/14 08:19:02;;;;;;;37.20;17.10;;;;;;;3.84;70.80;100491.04;125870;1099;104865;-82
2022/01/14 08:21:39;;;;;;;37.93;16.47;;;;;;;3.87;70.82;100488.63;125897;1099;102798;-82
2022/01/14 08:24:23;;;;;;;38.20;16.53;;;;;;;3.92;69.73;100489.80;125763;1099;104274;-81
2022/01/14 08:27:11;;;;;;;33.57;15.47;;;;;;;3.96;70.14;100465.84;125727;1099;104169;-80
2022/01/14 08:29:52;;;;;;;33.80;15.80;;;;;;;4.06;70.39;100481.98;125604;1099;104127;-82
2022/01/14 08:32:37;;;;;;;37.37;17.17;;;;;;;4.12;69.84;100479.77;125726;1099;104427;-82
2022/01/14 08:35:18;;;;;;;33.50;15.40;;;;;;;4.17;69.66;100483.53;125767;1098;104348;-82
2022/01/14 08:37:58;;;;;;;32.43;14.93;;;;;;;4.23;69.52;100472.62;125957;1098;104207;-79
2022/01/14 08:40:38;;;;;;;33.80;15.83;;;;;;;4.25;69.67;100458.91;126100;1099;104235;-82
2022/01/14 08:43:39;;;;;;;36.40;16.03;;;;;;;4.31;68.73;100472.27;125500;1099;104313;-83
2022/01/14 08:46:31;;;;;;;35.87;16.10;;;;;;;4.36;69.64;100472.55;126138;1099;104290;-82
2022/01/14 08:49:17;;;;;;;34.03;16.20;;;;;;;4.41;69.73;100465.03;125068;1102;104220;-83
2022/01/14 08:52:01;;;;;;;34.83;16.57;;;;;;;4.46;68.63;100467.11;125338;1100;104205;-80
2022/01/14 08:54:42;;;;;;;37.83;17.57;;;;;;;4.50;69.56;100463.89;125134;1102;104188;-82
2022/01/14 08:57:43;;;;;;;34.57;17.03;;;;;;;4.60;69.24;100447.13;125319;1099;104357;-83
2022/01/14 09:00:39;;;;;;;36.27;15.83;;;;;;;4.70;68.38;100443.36;125191;1100;104153;-84
2022/01/14 09:03:27;;;;;;;33.83;16.37;;;;;;;4.75;67.67;100434.11;125271;1100;104290;-83
2022/01/14 09:06:15;;;;;;;31.30;15.03;;;;;;;4.78;68.40;100430.80;125074;1099;104184;-80
2022/01/14 09:08:54;;;;;;;35.27;15.97;;;;;;;4.82;67.89;100420.67;125174;1099;104265;-81
2022/01/14 09:11:35;;;;;;;33.30;15.27;;;;;;;4.93;68.18;100416.09;125901;1099;109138;-79
2022/01/14 09:14:12;;;;;;;34.67;16.45;;;;;;;5.02;68.75;100407.92;125505;1099;103966;-81
2022/01/14 09:19:46;;;;;;;34.07;15.43;;;;;;;5.15;67.49;100394.78;126089;1099;104194;-80
2022/01/14 09:22:20;;;;;;;30.97;14.50;;;;;;;5.19;66.99;100406.27;126209;1099;104298;-79
2022/01/14 09:24:59;;;;;;;31.40;14.50;;;;;;;5.19;66.12;100393.27;126170;1099;104156;-81
2022/01/14 09:27:36;;;;;;;33.57;15.23;;;;;;;5.14;65.18;100384.28;126005;1099;104152;-81
2022/01/14 09:33:06;;;;;;;35.50;14.30;;;;;;;5.19;66.22;100362.05;126118;1099;104191;-78
2022/01/14 09:38:35;;;;;;;32.60;13.93;;;;;;;5.27;65.71;100342.54;125931;1099;104331;-80
2022/01/14 09:41:14;;;;;;;31.20;15.27;;;;;;;5.22;63.84;100342.29;126005;1099;103097;-78
2022/01/14 09:43:48;;;;;;;30.73;14.13;;;;;;;5.22;64.56;100323.20;126101;1099;104178;-78
2022/01/14 09:46:23;;;;;;;32.38;14.55;;;;;;;5.26;64.72;100332.94;126065;1099;104188;-79
2022/01/14 09:48:58;;;;;;;29.13;13.43;;;;;;;5.31;64.62;100326.27;125267;1099;104322;-79
2022/01/14 09:54:42;;;;;;;30.20;13.47;;;;;;;5.38;63.77;100323.19;126094;1099;104239;-82
2022/01/14 09:57:20;;;;;;;30.83;14.80;;;;;;;5.33;63.99;100313.34;126097;1098;104254;-82
2022/01/14 10:00:12;;;;;;;;;;;;;;;;;;;;;
2022/01/14 10:02:56;;;;;;;33.33;14.47;;;;;;;5.40;63.11;100316.34;125831;1098;119060;-80
2022/01/14 10:05:44;;;;;;;33.07;14.70;;;;;;;5.45;63.79;100294.89;125298;1099;104184;-81
2022/01/14 10:08:29;;;;;;;34.60;14.83;;;;;;;5.50;63.28;100290.81;125123;1100;104256;-79
2022/01/14 10:11:13;;;;;;;33.87;15.03;;;;;;;5.55;63.45;100273.75;125788;1099;104352;-80
2022/01/14 10:14:06;;;;;;;28.60;13.43;;;;;;;5.58;62.42;100284.33;126236;1099;102194;-80
2022/01/14 10:16:43;;;;;;;31.73;15.33;;;;;;;5.57;63.09;100262.59;125110;1099;103039;-78
2022/01/14 10:19:26;;;;;;;29.73;13.93;;;;;;;5.57;62.72;100254.78;125696;1099;104431;-79
2022/01/14 10:22:00;;;;;;;29.63;13.73;;;;;;;5.61;63.27;100250.64;125707;1099;104252;-80
2022/01/14 10:24:33;;;;;;;32.20;14.65;;;;;;;5.63;61.80;100249.00;125189;1099;104354;-78
2022/01/14 10:27:09;;;;;;;31.73;14.43;;;;;;;5.65;61.30;100239.55;125831;1099;104146;-79
2022/01/14 10:29:44;;;;;;;30.40;14.00;;;;;;;5.72;62.58;100240.78;125693;1099;104193;-79
2022/01/14 10:32:19;;;;;;;31.43;14.60;;;;;;;5.70;61.71;100238.10;125828;1099;104197;-79
2022/01/14 10:34:51;;;;;;;32.83;14.80;;;;;;;5.73;62.00;100239.95;125765;1099;104299;-79
2022/01/14 10:37:24;;;;;;;28.67;13.77;;;;;;;5.76;62.33;100221.88;125646;1100;104178;-79
2022/01/14 10:39:59;;;;;;;34.80;14.00;;;;;;;5.72;61.04;100241.67;125845;1099;104213;-80
2022/01/14 10:42:38;;;;;;;30.97;12.75;;;;;;;5.70;61.30;100216.36;125719;1099;104185;-81
2022/01/14 10:45:27;;;;;;;28.73;13.67;;;;;;;5.68;61.11;100216.28;125847;1099;104342;-81
2022/01/14 10:48:49;;;;;;;;;;;;;;;;;;;;;
2022/01/14 10:52:11;;;;;;;30.73;14.33;;;;;;;5.70;61.62;100209.47;125117;1102;104175;-79
2022/01/14 10:54:49;;;;;;;29.50;14.67;;;;;;;5.74;61.48;100198.37;125804;1099;104303;-78
2022/01/14 10:57:32;;;;;;;34.40;15.00;;;;;;;5.78;61.52;100177.70;125667;1099;104172;-80
2022/01/14 11:00:28;;;;;;;26.37;11.53;;;;;;;5.75;60.12;100181.94;125835;1099;104274;-82
2022/01/14 11:03:12;;;;;;;27.37;11.77;;;;;;;5.69;59.29;100180.75;126022;1099;104628;-80
2022/01/14 11:05:53;;;;;;;31.73;14.40;;;;;;;5.68;60.59;100148.59;125835;1098;102723;-80
2022/01/14 11:08:37;;;;;;;29.07;13.67;;;;;;;5.70;60.50;100143.47;125734;1099;104188;-80
2022/01/14 11:11:13;;;;;;;28.83;13.13;;;;;;;5.74;60.12;100148.02;125731;1098;104329;-78
2022/01/14 11:13:47;;;;;;;27.07;12.03;;;;;;;5.74;59.72;100135.00;125692;1099;105515;-76
2022/01/14 11:16:21;;;;;;;30.50;14.40;;;;;;;5.75;61.15;100129.87;125641;1099;104303;-77
2022/01/14 11:18:58;;;;;;;31.90;14.77;;;;;;;5.79;60.78;100130.02;125706;1099;104233;-81
2022/01/14 11:24:28;;;;;;;31.07;14.50;;;;;;;5.88;61.32;100091.41;125793;1098;119386;-78
2022/01/14 11:27:13;;;;;;;30.03;14.50;;;;;;;5.90;61.29;100098.45;124997;1099;104249;-80
2022/01/14 11:29:51;;;;;;;31.53;13.73;;;;;;;5.94;60.90;100092.58;125153;1099;104284;-80
2022/01/14 11:32:52;;;;;;;29.60;13.87;;;;;;;5.85;59.88;100071.31;125136;1099;104517;-79
2022/01/14 11:35:43;;;;;;;30.23;13.27;;;;;;;5.90;60.75;100063.72;125053;1102;104339;-80
2022/01/14 11:38:38;;;;;;;31.87;13.77;;;;;;;5.83;60.26;100056.42;124991;1099;104328;-80
2022/01/14 11:41:45;;;;;;;33.30;14.35;;;;;;;5.91;60.27;100055.09;125000;1099;104524;-82
2022/01/14 11:45:08;;;;;;;;;;;;;;;;;;;;;
2022/01/14 11:48:02;;;;;;;29.10;13.30;;;;;;;5.91;60.80;100045.56;125025;1099;104349;-79
2022/01/14 11:50:51;;;;;;;33.02;13.65;;;;;;;5.92;59.80;100030.81;124995;1099;104418;-79
2022/01/14 11:53:54;;;;;;;28.87;13.57;;;;;;;5.91;59.68;100023.84;125030;1099;104374;-79
2022/01/14 11:56:47;;;;;;;30.33;13.50;;;;;;;5.90;59.75;100022.05;125006;1099;102016;-78
2022/01/14 11:59:46;;;;;;;30.90;13.63;;;;;;;5.90;59.46;100016.84;125510;1099;104913;-78
2022/01/14 12:02:43;;;;;;;28.80;13.13;;;;;;;5.92;59.28;100015.20;125830;1099;104179;-77
2022/01/14 12:05:27;;;;;;;29.40;12.53;;;;;;;5.94;59.22;100008.36;125767;1099;105034;-78
2022/01/14 12:08:26;;;;;;;27.33;13.43;;;;;;;5.97;59.40;100003.33;126076;1099;102824;-78
2022/01/14 12:11:24;;;;;;;33.20;13.50;;;;;;;6.01;60.16;100002.63;126053;1099;104315;-79
2022/01/14 12:14:03;;;;;;;28.97;13.17;;;;;;;6.05;59.24;100006.30;126019;1099;104156;-79
2022/01/14 12:16:38;;;;;;;29.17;12.63;;;;;;;6.05;58.59;100003.69;125995;1099;104197;-78
2022/01/14 12:19:16;;;;;;;32.60;13.13;;;;;;;6.07;59.68;100000.31;126058;1099;104612;-77
2022/01/14 12:22:06;;;;;;;30.20;12.57;;;;;;;6.06;58.89;99998.55;125859;1099;104171;-77
2022/01/14 12:24:49;;;;;;;30.30;13.53;;;;;;;6.07;59.85;100002.91;125904;1099;104134;-77
2022/01/14 12:30:22;;;;;;;29.17;12.90;;;;;;;6.03;58.58;100000.09;125823;1099;104175;-78
2022/01/14 12:32:56;;;;;;;30.80;13.63;;;;;;;6.02;58.93;99994.01;125848;1099;104150;-81